createdAt,value
2018-10-12T00:01:25.121Z,8.80
2018-10-12T00:04:28.238Z,9.00
2018-10-12T00:07:31.425Z,8.50
2018-10-12T00:10:34.552Z,8.53
2018-10-12T00:13:37.694Z,9.10
2018-10-12T00:16:40.813Z,8.60
2018-10-12T00:19:43.922Z,8.50
2018-10-12T00:22:47.028Z,8.17
2018-10-12T00:25:50.143Z,8.23
2018-10-12T00:28:53.267Z,7.90
2018-10-12T00:31:56.408Z,7.73
2018-10-12T00:34:59.485Z,8.50
2018-10-12T00:38:02.599Z,8.03
2018-10-12T00:41:05.770Z,7.90
2018-10-12T00:44:08.875Z,8.20
2018-10-12T00:47:11.987Z,8.47
2018-10-12T00:50:15.075Z,7.33
2018-10-12T00:53:18.194Z,8.80
2018-10-12T00:56:21.290Z,7.93
2018-10-12T00:59:24.383Z,7.87
2018-10-12T01:02:33.086Z,8.10
2018-10-12T01:05:36.202Z,8.03
2018-10-12T01:08:39.298Z,8.20
2018-10-12T01:11:42.365Z,8.07
2018-10-12T01:14:45.476Z,8.10
2018-10-12T01:17:48.551Z,8.13
2018-10-12T01:20:51.657Z,8.33
2018-10-12T01:23:54.721Z,8.20
2018-10-12T01:26:57.862Z,8.17
2018-10-12T01:30:00.973Z,7.80
2018-10-12T01:33:05.166Z,8.60
2018-10-12T01:36:08.246Z,8.73
2018-10-12T01:39:11.374Z,8.67
2018-10-12T01:42:14.591Z,8.10
2018-10-12T01:45:17.698Z,8.93
2018-10-12T01:48:20.774Z,9.30
2018-10-12T01:51:23.886Z,9.00
2018-10-12T01:54:27.050Z,8.60
2018-10-12T01:57:30.157Z,10.80
2018-10-12T02:00:33.235Z,9.40
2018-10-12T02:03:36.338Z,10.70
2018-10-12T02:06:39.442Z,11.00
2018-10-12T02:09:42.585Z,9.83
2018-10-12T02:12:45.654Z,9.17
2018-10-12T02:15:48.896Z,9.53
2018-10-12T02:18:51.995Z,9.50
2018-10-12T02:21:55.315Z,7.97
2018-10-12T02:24:58.393Z,8.20
2018-10-12T02:28:01.498Z,8.90
2018-10-12T02:31:04.578Z,8.93
2018-10-12T02:34:07.678Z,9.03
2018-10-12T02:37:10.774Z,9.83
2018-10-12T02:40:13.879Z,9.23
2018-10-12T02:43:16.942Z,7.63
2018-10-12T02:46:20.083Z,8.37
2018-10-12T02:49:23.189Z,8.40
2018-10-12T02:52:26.292Z,8.10
2018-10-12T02:55:29.374Z,7.70
2018-10-12T02:58:32.511Z,8.03
2018-10-12T03:01:35.598Z,8.30
2018-10-12T03:04:38.709Z,8.40
2018-10-12T03:07:41.781Z,8.57
2018-10-12T03:10:44.881Z,8.43
2018-10-12T03:13:47.992Z,8.30
2018-10-12T03:16:51.081Z,8.33
2018-10-12T03:19:54.196Z,8.30
2018-10-12T03:22:57.314Z,8.30
2018-10-12T03:26:00.558Z,8.87
2018-10-12T03:29:03.665Z,8.80
2018-10-12T03:32:06.965Z,8.67
2018-10-12T03:35:10.065Z,8.97
2018-10-12T03:38:13.407Z,8.57
2018-10-12T03:41:16.518Z,8.47
2018-10-12T03:44:19.618Z,8.80
2018-10-12T03:47:22.725Z,8.50
2018-10-12T03:50:25.801Z,7.77
2018-10-12T03:53:28.906Z,8.80
2018-10-12T03:56:32.049Z,8.20
2018-10-12T03:59:35.115Z,8.50
2018-10-12T04:02:38.269Z,8.43
2018-10-12T04:05:41.337Z,8.40
2018-10-12T04:08:44.426Z,9.20
2018-10-12T04:11:47.522Z,8.77
2018-10-12T04:14:50.589Z,8.83
2018-10-12T04:17:53.702Z,8.57
2018-10-12T04:20:56.782Z,8.47
2018-10-12T04:23:59.877Z,9.07
2018-10-12T04:27:02.969Z,7.90
2018-10-12T04:30:06.647Z,8.83
2018-10-12T04:33:09.730Z,8.30
2018-10-12T04:36:12.826Z,8.83
2018-10-12T04:39:27.527Z,8.57
2018-10-12T04:42:30.618Z,8.50
2018-10-12T04:45:33.739Z,8.57
2018-10-12T04:48:37.986Z,8.50
2018-10-12T04:51:46.118Z,8.90
2018-10-12T04:54:49.238Z,8.33
2018-10-12T04:57:52.332Z,8.00
2018-10-12T05:00:55.494Z,8.57
2018-10-12T05:03:58.534Z,9.27
2018-10-12T05:07:01.631Z,9.43
2018-10-12T05:10:04.762Z,8.13
2018-10-12T05:13:08.081Z,9.10
2018-10-12T05:16:11.185Z,8.30
2018-10-12T05:19:14.265Z,8.43
2018-10-12T05:22:17.477Z,8.37
2018-10-12T05:25:20.494Z,8.37
2018-10-12T05:28:24.363Z,8.77
2018-10-12T05:31:27.486Z,8.27
2018-10-12T05:34:30.602Z,8.30
2018-10-12T05:37:33.838Z,8.00
2018-10-12T05:40:36.942Z,8.97
2018-10-12T05:43:40.119Z,9.00
2018-10-12T05:46:43.145Z,8.57
2018-10-12T05:49:57.245Z,9.23
2018-10-12T05:53:00.378Z,9.33
2018-10-12T05:56:03.823Z,9.03
2018-10-12T05:59:07.251Z,7.97
2018-10-12T06:02:10.379Z,8.63
2018-10-12T06:05:13.478Z,8.33
2018-10-12T06:08:16.605Z,9.00
2018-10-12T06:11:19.717Z,8.93
2018-10-12T06:14:22.793Z,8.13
2018-10-12T06:17:25.886Z,7.67
2018-10-12T06:20:29.178Z,7.97
2018-10-12T06:23:32.402Z,8.13
2018-10-12T06:26:35.532Z,7.70
2018-10-12T06:29:38.642Z,8.07
2018-10-12T06:32:42.025Z,8.10
2018-10-12T06:35:45.066Z,7.90
2018-10-12T06:38:48.161Z,8.13
2018-10-12T06:41:51.433Z,7.20
2018-10-12T06:44:54.414Z,7.37
2018-10-12T06:48:04.155Z,8.10
2018-10-12T06:51:07.258Z,8.10
2018-10-12T06:54:10.795Z,8.00
2018-10-12T06:57:13.877Z,8.23
2018-10-12T07:00:16.974Z,7.50
2018-10-12T07:03:20.515Z,7.70
2018-10-12T07:06:23.166Z,7.50
2018-10-12T07:09:26.289Z,7.80
2018-10-12T07:12:29.366Z,8.10
2018-10-12T07:15:32.460Z,7.60
2018-10-12T07:18:35.543Z,7.40
2018-10-12T07:21:38.665Z,7.90
2018-10-12T07:24:41.757Z,7.27
2018-10-12T07:27:44.833Z,7.43
2018-10-12T07:30:47.953Z,7.60
2018-10-12T07:33:51.069Z,7.67
2018-10-12T07:36:54.183Z,7.30
2018-10-12T07:39:57.250Z,7.40
2018-10-12T07:43:00.349Z,7.50
2018-10-12T07:46:03.432Z,7.47
2018-10-12T07:49:06.621Z,7.73
2018-10-12T07:52:09.713Z,7.60
2018-10-12T07:55:12.815Z,6.90
2018-10-12T07:58:15.894Z,7.40
2018-10-12T08:01:18.992Z,7.40
2018-10-12T08:04:22.094Z,7.83
2018-10-12T08:07:25.218Z,7.70
2018-10-12T08:10:28.410Z,6.77
2018-10-12T08:13:31.513Z,7.30
2018-10-12T08:16:34.616Z,7.50
2018-10-12T08:19:37.702Z,7.60
2018-10-12T08:22:40.916Z,7.43
2018-10-12T08:25:44.032Z,7.37
2018-10-12T08:28:47.113Z,7.00
2018-10-12T08:31:50.203Z,7.30
2018-10-12T08:34:53.292Z,7.70
2018-10-12T08:37:56.407Z,7.40
2018-10-12T08:40:59.542Z,8.00
2018-10-12T08:44:02.682Z,8.10
2018-10-12T08:47:05.774Z,7.73
2018-10-12T08:50:08.870Z,7.40
2018-10-12T08:53:11.986Z,8.07
2018-10-12T08:56:15.108Z,7.90
2018-10-12T08:59:18.397Z,8.50
2018-10-12T09:02:21.514Z,8.27
2018-10-12T09:05:24.631Z,8.13
2018-10-12T09:08:27.719Z,7.60
2018-10-12T09:11:30.834Z,8.10
2018-10-12T09:14:33.954Z,8.10
2018-10-12T09:17:37.059Z,8.30
2018-10-12T09:20:40.251Z,8.10
2018-10-12T09:23:43.277Z,8.17
2018-10-12T09:26:46.386Z,8.20
2018-10-12T09:29:49.798Z,8.53
2018-10-12T09:32:52.886Z,8.07
2018-10-12T09:35:56.007Z,8.23
2018-10-12T09:38:59.115Z,7.87
2018-10-12T09:42:02.229Z,7.43
2018-10-12T09:45:05.314Z,8.37
2018-10-12T09:48:08.695Z,7.73
2018-10-12T09:51:11.777Z,8.17
2018-10-12T09:54:14.883Z,8.20
2018-10-12T09:57:23.359Z,7.43
2018-10-12T10:00:31.845Z,7.47
2018-10-12T10:03:40.162Z,6.87
2018-10-12T10:06:43.294Z,7.10
2018-10-12T10:09:46.401Z,6.20
2018-10-12T10:12:49.518Z,7.47
2018-10-12T10:15:52.608Z,6.70
2018-10-12T10:18:55.730Z,6.90
2018-10-12T10:21:58.851Z,7.00
2018-10-12T10:25:01.952Z,6.73
2018-10-12T10:28:05.526Z,7.10
2018-10-12T10:31:08.608Z,6.17
2018-10-12T10:34:11.718Z,6.00
2018-10-12T10:37:14.827Z,5.70
2018-10-12T10:40:17.947Z,5.50
2018-10-12T10:43:21.053Z,5.43
2018-10-12T10:46:24.236Z,6.20
2018-10-12T10:49:27.326Z,5.70
2018-10-12T10:52:30.402Z,5.47
2018-10-12T10:55:33.515Z,5.90
2018-10-12T10:58:36.649Z,5.80
2018-10-12T11:01:40.076Z,7.00
2018-10-12T11:04:43.198Z,6.10
2018-10-12T11:07:46.318Z,5.27
2018-10-12T11:10:49.435Z,4.77
2018-10-12T11:13:52.549Z,5.50
2018-10-12T11:16:55.674Z,5.30
2018-10-12T11:19:58.812Z,5.40
2018-10-12T11:23:01.928Z,5.40
2018-10-12T11:26:05.054Z,5.40
2018-10-12T11:29:08.166Z,5.33
2018-10-12T11:32:11.290Z,4.50
2018-10-12T11:35:14.391Z,5.17
2018-10-12T11:38:17.569Z,5.30
2018-10-12T11:41:20.634Z,4.93
2018-10-12T11:44:23.798Z,4.70
2018-10-12T11:47:26.914Z,4.70
2018-10-12T11:50:30.022Z,4.83
2018-10-12T11:53:33.140Z,4.70
2018-10-12T11:56:36.286Z,5.30
2018-10-12T11:59:39.369Z,5.27
2018-10-12T12:02:42.475Z,5.57
2018-10-12T12:05:45.589Z,5.00
2018-10-12T12:08:48.710Z,4.93
2018-10-12T12:11:52.650Z,5.03
2018-10-12T12:14:55.778Z,4.87
2018-10-12T12:17:59.257Z,4.10
2018-10-12T12:21:02.343Z,4.90
2018-10-12T12:24:05.557Z,4.73
2018-10-12T12:27:08.726Z,4.53
2018-10-12T12:30:11.835Z,4.27
2018-10-12T12:33:14.938Z,4.40
2018-10-12T12:36:18.103Z,4.10
2018-10-12T12:39:21.263Z,4.13
2018-10-12T12:42:24.354Z,4.07
2018-10-12T12:45:27.490Z,4.00
2018-10-12T12:48:30.829Z,4.03
2018-10-12T12:51:33.723Z,4.17
2018-10-12T12:54:36.890Z,4.47
2018-10-12T12:57:40.020Z,4.23
2018-10-12T13:00:43.097Z,3.87
2018-10-12T13:03:46.207Z,4.30
2018-10-12T13:06:49.315Z,4.57
2018-10-12T13:09:52.423Z,4.60
2018-10-12T13:12:55.507Z,4.40
2018-10-12T13:15:58.669Z,4.40
2018-10-12T13:19:01.766Z,4.70
2018-10-12T13:22:04.878Z,4.40
2018-10-12T13:25:08.018Z,4.27
2018-10-12T13:28:11.139Z,4.17
2018-10-12T13:31:14.230Z,4.97
2018-10-12T13:34:17.436Z,4.47
2018-10-12T13:37:20.546Z,5.17
2018-10-12T13:40:23.771Z,4.70
2018-10-12T13:43:26.774Z,4.40
2018-10-12T13:46:29.956Z,4.80
2018-10-12T13:49:33.047Z,4.57
2018-10-12T13:52:36.158Z,4.63
2018-10-12T13:55:39.312Z,4.73
2018-10-12T13:58:42.494Z,4.37
2018-10-12T14:01:45.607Z,4.50
2018-10-12T14:04:48.732Z,4.37
2018-10-12T14:07:51.878Z,4.20
2018-10-12T14:10:54.991Z,4.17
2018-10-12T14:13:58.089Z,4.40
2018-10-12T14:17:01.306Z,4.27
2018-10-12T14:20:04.522Z,4.10
2018-10-12T14:23:07.727Z,4.10
2018-10-12T14:26:10.838Z,3.67
2018-10-12T14:29:13.958Z,3.83
2018-10-12T14:32:17.046Z,4.00
2018-10-12T14:35:20.175Z,3.67
2018-10-12T14:38:23.299Z,4.17
2018-10-12T14:41:26.419Z,3.93
2018-10-12T14:44:29.654Z,3.93
2018-10-12T14:47:33.686Z,3.80
2018-10-12T14:50:36.910Z,4.03
2018-10-12T14:53:40.050Z,3.70
2018-10-12T14:56:43.263Z,3.77
2018-10-12T14:59:46.603Z,3.60
2018-10-12T15:02:49.741Z,3.67
2018-10-12T15:05:52.870Z,3.40
2018-10-12T15:08:55.973Z,3.47
2018-10-12T15:11:59.115Z,3.40
2018-10-12T15:15:16.789Z,3.30
2018-10-12T15:18:21.050Z,3.60
2018-10-12T15:21:24.358Z,3.20
2018-10-12T15:24:27.290Z,3.30
2018-10-12T15:27:30.368Z,3.40
2018-10-12T15:30:33.477Z,3.10
2018-10-12T15:33:36.582Z,3.40
2018-10-12T15:36:39.718Z,3.27
2018-10-12T15:39:42.801Z,3.40
2018-10-12T15:42:45.947Z,3.73
2018-10-12T15:45:49.005Z,3.63
2018-10-12T15:48:52.122Z,3.20
2018-10-12T15:51:55.242Z,3.40
2018-10-12T15:54:58.386Z,3.60
2018-10-12T15:58:01.491Z,2.93
2018-10-12T16:01:04.575Z,3.17
2018-10-12T16:04:07.793Z,3.67
2018-10-12T16:07:10.886Z,3.70
2018-10-12T16:10:14.018Z,3.10
2018-10-12T16:13:17.548Z,3.23
2018-10-12T16:16:20.663Z,3.57
2018-10-12T16:19:23.815Z,3.10
2018-10-12T16:22:26.948Z,3.37
2018-10-12T16:25:50.835Z,3.67
2018-10-12T16:28:54.022Z,3.50
2018-10-12T16:31:57.071Z,4.03
2018-10-12T16:35:00.179Z,3.50
2018-10-12T16:38:03.269Z,3.93
2018-10-12T16:41:06.409Z,3.37
2018-10-12T16:44:09.898Z,4.07
2018-10-12T16:47:13.062Z,3.50
2018-10-12T16:50:16.147Z,4.00
2018-10-12T16:53:19.270Z,3.40
2018-10-12T16:56:22.365Z,3.93
2018-10-12T16:59:25.460Z,3.93
2018-10-12T17:02:28.554Z,4.73
2018-10-12T17:05:31.653Z,3.80
2018-10-12T17:08:34.730Z,6.87
2018-10-12T17:11:37.809Z,4.60
2018-10-12T17:14:40.879Z,5.73
2018-10-12T17:17:44.003Z,3.73
2018-10-12T17:20:47.069Z,3.90
2018-10-12T17:23:50.178Z,4.37
2018-10-12T17:26:53.307Z,3.83
2018-10-12T17:29:56.375Z,4.13
2018-10-12T17:32:59.471Z,3.70
2018-10-12T17:36:02.562Z,3.90
2018-10-12T17:39:09.373Z,3.53
2018-10-12T17:42:15.402Z,3.40
2018-10-12T17:45:18.489Z,3.70
2018-10-12T17:48:21.590Z,3.73
2018-10-12T17:51:24.718Z,5.70
2018-10-12T17:54:27.821Z,6.70
2018-10-12T17:57:30.906Z,3.70
2018-10-12T18:00:34.038Z,4.03
2018-10-12T18:03:37.078Z,3.97
2018-10-12T18:06:40.174Z,3.73
2018-10-12T18:09:43.271Z,3.40
2018-10-12T18:12:46.378Z,3.60
2018-10-12T18:15:49.486Z,3.73
2018-10-12T18:18:52.567Z,3.90
2018-10-12T18:21:55.658Z,3.60
2018-10-12T18:24:58.726Z,3.53
2018-10-12T18:28:01.835Z,3.53
2018-10-12T18:31:04.934Z,3.83
2018-10-12T18:34:08.070Z,4.13
2018-10-12T18:37:11.166Z,3.43
2018-10-12T18:40:14.251Z,3.77
2018-10-12T18:43:17.354Z,3.87
2018-10-12T18:46:20.426Z,3.33
2018-10-12T18:49:23.530Z,4.17
2018-10-12T18:52:26.638Z,4.07
2018-10-12T18:55:29.740Z,4.20
2018-10-12T18:58:32.929Z,6.73
2018-10-12T19:01:36.014Z,4.20
2018-10-12T19:04:39.219Z,4.40
2018-10-12T19:07:42.243Z,4.20
2018-10-12T19:10:45.362Z,4.50
2018-10-12T19:13:48.606Z,4.40
2018-10-12T19:16:51.646Z,4.13
2018-10-12T19:19:54.750Z,4.27
2018-10-12T19:22:57.834Z,4.33
2018-10-12T19:26:00.938Z,4.10
2018-10-12T19:29:09.658Z,4.60
2018-10-12T19:32:12.827Z,4.27
2018-10-12T19:35:15.939Z,4.30
2018-10-12T19:38:19.117Z,4.50
2018-10-12T19:41:22.204Z,4.17
2018-10-12T19:44:25.347Z,4.17
2018-10-12T19:47:28.463Z,4.57
2018-10-12T19:50:31.591Z,4.20
2018-10-12T19:53:34.699Z,4.40
2018-10-12T19:56:37.807Z,4.23
2018-10-12T19:59:41.283Z,4.70
2018-10-12T20:02:44.399Z,4.33
2018-10-12T20:05:47.518Z,4.43
2018-10-12T20:08:50.613Z,4.37
2018-10-12T20:11:54.303Z,4.70
2018-10-12T20:14:57.450Z,4.17
2018-10-12T20:18:00.595Z,4.30
2018-10-12T20:21:03.718Z,4.50
2018-10-12T20:24:07.228Z,4.80
2018-10-12T20:27:10.293Z,4.70
2018-10-12T20:30:13.402Z,4.53
2018-10-12T20:33:16.742Z,4.83
2018-10-12T20:36:19.826Z,4.90
2018-10-12T20:39:23.056Z,4.60
2018-10-12T20:42:26.094Z,4.40
2018-10-12T20:45:29.217Z,4.30
2018-10-12T20:48:32.557Z,3.90
2018-10-12T20:51:35.969Z,4.60
2018-10-12T20:54:39.185Z,4.70
2018-10-12T20:57:45.794Z,4.90
2018-10-12T21:00:48.926Z,4.17
2018-10-12T21:03:52.040Z,4.40
2018-10-12T21:06:55.127Z,5.57
2018-10-12T21:09:58.233Z,4.70
2018-10-12T21:13:01.354Z,4.80
2018-10-12T21:16:04.446Z,4.10
2018-10-12T21:19:07.804Z,4.20
2018-10-12T21:22:10.918Z,4.27
2018-10-12T21:25:14.018Z,4.50
2018-10-12T21:28:17.264Z,4.40
2018-10-12T21:31:20.273Z,4.30
2018-10-12T21:34:23.374Z,4.27
2018-10-12T21:37:26.458Z,4.20
2018-10-12T21:40:29.589Z,4.10
2018-10-12T21:43:32.682Z,4.87
2018-10-12T21:46:35.828Z,4.77
2018-10-12T21:49:38.894Z,4.53
2018-10-12T21:52:42.004Z,4.33
2018-10-12T21:55:45.120Z,4.47
2018-10-12T21:58:48.510Z,4.10
2018-10-12T22:01:51.592Z,4.53
2018-10-12T22:04:54.682Z,4.50
2018-10-12T22:07:57.790Z,4.70
2018-10-12T22:11:00.891Z,4.60
2018-10-12T22:14:04.376Z,4.10
2018-10-12T22:17:07.475Z,4.60
2018-10-12T22:20:10.606Z,4.33
2018-10-12T22:23:13.706Z,4.00
2018-10-12T22:26:16.848Z,5.53
2018-10-12T22:29:19.918Z,4.17
2018-10-12T22:32:23.066Z,4.33
2018-10-12T22:35:26.142Z,4.03
2018-10-12T22:38:29.238Z,4.30
2018-10-12T22:41:32.338Z,4.73
2018-10-12T22:44:35.416Z,4.40
2018-10-12T22:47:45.031Z,4.43
2018-10-12T22:50:48.138Z,4.77
2018-10-12T22:53:51.255Z,4.53
2018-10-12T22:56:54.355Z,4.60
2018-10-12T22:59:57.468Z,4.53
2018-10-12T23:03:00.916Z,4.30
2018-10-12T23:06:03.994Z,4.43
2018-10-12T23:09:09.277Z,5.10
2018-10-12T23:12:12.362Z,4.57
2018-10-12T23:15:15.622Z,4.50
2018-10-12T23:18:18.865Z,4.50
2018-10-12T23:21:21.961Z,4.77
2018-10-12T23:24:25.049Z,5.63
2018-10-12T23:27:28.157Z,4.57
2018-10-12T23:30:31.255Z,4.30
2018-10-12T23:33:45.803Z,4.90
2018-10-12T23:36:48.882Z,4.97
2018-10-12T23:39:51.982Z,4.57
2018-10-12T23:42:55.056Z,4.63
2018-10-12T23:45:58.146Z,5.20
2018-10-12T23:49:01.233Z,4.63
2018-10-12T23:52:04.361Z,4.80
2018-10-12T23:55:07.443Z,4.43
2018-10-12T23:58:10.558Z,4.07
